Time;durP1;ratioP1;P1;durP2;ratioP2;P2;SDS_P1;SDS_P2;PMS_P1;PMS_P2;Temp;Humidity;BMP_temperature;BMP_pressure;BME280_temperature;BME280_humidity;BME280_pressure;Samples;Min_cycle;Max_cycle;Signal;HPM_P1;HPM_P2
2022/05/05 00:01:12;;;;;;;;;;;;;;;12.77;64.87;92879.75;2058865;69;20462;-68
2022/05/05 00:03:38;;;;;;;;;;;;;;;12.72;64.53;92873.16;2058557;69;20106;-68
2022/05/05 00:06:03;;;;;;;;;;;;;;;12.77;66.43;92881.84;2058763;69;20089;-68
2022/05/05 00:08:30;;;;;;;;;;;;;;;12.52;66.29;92880.50;2058893;69;20494;-67
2022/05/05 00:16:23;;;;;;;;;;;;;;;12.51;67.00;92881.88;2058824;69;20060;-68
2022/05/05 00:18:49;;;;;;;;;;;;;;;12.68;65.68;92884.22;2058534;69;20061;-69
2022/05/05 00:21:15;;;;;;;;;;;;;;;12.50;68.18;92883.19;2071659;69;20119;-68
2022/05/05 00:23:40;;;;;;;;;;;;;;;12.59;67.26;92890.78;2058736;69;20062;-68
2022/05/05 00:26:06;;;;;;;;;;;;;;;12.48;68.60;92885.91;2058712;69;20050;-68
2022/05/05 00:28:31;;;;;;;;;;;;;;;12.51;67.59;92881.88;2069064;69;20082;-69
2022/05/05 00:30:56;;;;;;;;;;;;;;;12.65;65.26;92879.09;2058671;69;20518;-68
2022/05/05 00:33:22;;;;;;;;;;;;;;;12.62;65.31;92894.47;2058291;69;20089;-69
2022/05/05 00:35:47;;;;;;;;;;;;;;;12.07;70.07;92897.69;2058803;69;20070;-71
2022/05/05 00:38:13;;;;;;;;;;;;;;;12.28;69.45;92896.03;2071802;69;20062;-69
2022/05/05 00:40:41;;;;;;;;;;;;;;;12.40;68.30;92896.75;2058606;69;20062;-68
2022/05/05 00:43:06;;;;;;;;;;;;;;;12.46;68.37;92892.19;2058830;69;20057;-69
2022/05/05 00:45:32;;;;;;;;;;;;;;;12.45;68.26;92893.53;2058408;69;20057;-71
2022/05/05 00:48:04;;;;;;;;;;;;;;;12.45;69.07;92892.78;2058552;69;20069;-68
2022/05/05 00:50:31;;;;;;;;;;;;;;;12.43;68.96;92892.69;2071641;69;20065;-68
2022/05/05 00:52:57;;;;;;;;;;;;;;;12.40;68.73;92888.28;2058559;69;20145;-69
2022/05/05 00:55:22;;;;;;;;;;;;;;;12.31;69.33;92887.06;2058642;69;20137;-69
2022/05/05 00:57:48;;;;;;;;;;;;;;;12.40;68.45;92883.34;2058425;69;20050;-70
2022/05/05 01:00:13;;;;;;;;;;;;;;;12.39;68.67;92886.81;2058612;69;20483;-68
2022/05/05 01:02:39;;;;;;;;;;;;;;;12.32;68.47;92882.88;2058363;69;20060;-68
2022/05/05 01:05:04;;;;;;;;;;;;;;;12.34;68.04;92877.38;2058604;69;20056;-69
2022/05/05 01:07:30;;;;;;;;;;;;;;;12.33;68.97;92873.09;2058314;69;20164;-71
2022/05/05 01:09:56;;;;;;;;;;;;;;;12.19;67.61;92870.19;2058520;69;20058;-69
2022/05/05 01:12:23;;;;;;;;;;;;;;;12.29;67.89;92867.22;2058525;69;20119;-70
2022/05/05 01:14:49;;;;;;;;;;;;;;;12.41;67.02;92867.16;2071574;69;20050;-68
2022/05/05 01:17:14;;;;;;;;;;;;;;;12.29;67.59;92872.13;2071532;69;20046;-69
2022/05/05 01:19:40;;;;;;;;;;;;;;;12.21;68.34;92867.47;2058432;69;20712;-69
2022/05/05 01:22:08;;;;;;;;;;;;;;;12.05;68.37;92866.56;2058278;69;20149;-69
2022/05/05 01:30:18;;;;;;;;;;;;;;;12.18;68.33;92865.88;2067307;69;20138;-68
2022/05/05 01:32:43;;;;;;;;;;;;;;;12.10;69.03;92867.53;2060048;69;20058;-68
2022/05/05 01:35:09;;;;;;;;;;;;;;;12.06;68.79;92876.47;2058447;69;20103;-69
2022/05/05 01:37:34;;;;;;;;;;;;;;;11.89;69.87;92871.97;2058160;69;20050;-68
2022/05/05 01:40:00;;;;;;;;;;;;;;;11.97;69.71;92879.44;2071428;69;20054;-68
2022/05/05 01:42:25;;;;;;;;;;;;;;;12.04;67.09;92884.09;2058602;69;20157;-68
2022/05/05 01:44:50;;;;;;;;;;;;;;;12.10;67.90;92881.63;2058940;69;20053;-68
2022/05/05 01:47:16;;;;;;;;;;;;;;;12.10;66.79;92882.38;2059078;69;20054;-68
2022/05/05 01:49:45;;;;;;;;;;;;;;;11.93;68.75;92888.41;2058925;69;20473;-68
2022/05/05 01:52:10;;;;;;;;;;;;;;;11.74;69.25;92888.66;2059000;69;20145;-69
2022/05/05 01:54:38;;;;;;;;;;;;;;;11.71;70.13;92884.97;2072099;69;20133;-68
2022/05/05 01:57:04;;;;;;;;;;;;;;;11.75;70.34;92879.56;2058665;69;20115;-69
2022/05/05 01:59:29;;;;;;;;;;;;;;;11.82;69.34;92875.00;2058983;69;20054;-68
2022/05/05 02:01:55;;;;;;;;;;;;;;;11.83;70.07;92877.28;2071946;69;20490;-68
2022/05/05 02:04:20;;;;;;;;;;;;;;;11.79;69.96;92879.09;2058900;69;20424;-68
2022/05/05 02:06:45;;;;;;;;;;;;;;;11.71;70.40;92870.88;2058906;69;20050;-68
2022/05/05 02:09:11;;;;;;;;;;;;;;;11.83;70.03;92877.28;2058911;69;20043;-70
2022/05/05 02:11:41;;;;;;;;;;;;;;;11.71;70.26;92865.22;2058772;69;20157;-68
2022/05/05 02:14:07;;;;;;;;;;;;;;;11.76;69.41;92871.84;2058945;69;20479;-69
2022/05/05 02:16:33;;;;;;;;;;;;;;;11.76;69.66;92877.47;2059013;69;20062;-69
2022/05/05 02:18:58;;;;;;;;;;;;;;;11.79;69.21;92882.63;2058834;69;20558;-69
2022/05/05 02:21:23;;;;;;;;;;;;;;;11.78;69.18;92889.63;2058801;69;20057;-71
2022/05/05 02:27:23;;;;;;;;;;;;;;;11.72;68.96;92894.91;2059151;69;20077;-70
2022/05/05 02:29:49;;;;;;;;;;;;;;;11.68;70.02;92903.09;2059104;69;20486;-70
2022/05/05 02:32:15;;;;;;;;;;;;;;;11.65;70.39;92910.72;2058748;69;20050;-70
2022/05/05 02:34:41;;;;;;;;;;;;;;;11.73;68.96;92913.31;2072011;69;20545;-70
2022/05/05 02:39:51;;;;;;;;;;;;;;;11.52;70.83;92913.44;2059042;69;20096;-72
2022/05/05 02:42:17;;;;;;;;;;;;;;;11.57;70.76;92918.69;2058998;69;20137;-70
2022/05/05 02:44:42;;;;;;;;;;;;;;;11.61;70.68;92910.47;2059193;69;20090;-71
2022/05/05 02:47:08;;;;;;;;;;;;;;;11.55;69.29;92910.13;2059198;69;20113;-70
2022/05/05 02:49:33;;;;;;;;;;;;;;;11.33;72.24;92903.84;2058948;69;20058;-69
2022/05/05 02:51:59;;;;;;;;;;;;;;;11.32;71.43;92899.56;2059054;69;20061;-69
2022/05/05 02:57:08;;;;;;;;;;;;;;;11.52;70.36;92896.50;2058646;69;20434;-69
2022/05/05 02:59:33;;;;;;;;;;;;;;;11.41;71.42;92890.28;2059025;69;20494;-69
2022/05/05 03:01:58;;;;;;;;;;;;;;;11.47;71.20;92889.16;2059155;69;20087;-71
2022/05/05 03:04:24;;;;;;;;;;;;;;;11.39;71.56;92880.94;2058971;69;20498;-71
2022/05/05 03:06:49;;;;;;;;;;;;;;;11.59;69.42;92882.19;2058715;69;20119;-72
2022/05/05 03:09:15;;;;;;;;;;;;;;;11.48;69.96;92885.00;2059097;69;20146;-71
2022/05/05 03:11:40;;;;;;;;;;;;;;;11.50;70.16;92883.03;2069233;69;20140;-71
2022/05/05 03:14:06;;;;;;;;;;;;;;;11.32;70.36;92890.38;2059101;69;20057;-69
2022/05/05 03:16:31;;;;;;;;;;;;;;;11.50;70.00;92890.75;2072056;69;20136;-69
2022/05/05 03:18:56;;;;;;;;;;;;;;;11.29;70.43;92892.34;2071938;69;20050;-69
2022/05/05 03:21:22;;;;;;;;;;;;;;;11.39;70.68;92897.84;2058614;69;20149;-70
2022/05/05 03:23:47;;;;;;;;;;;;;;;11.37;70.65;92903.38;2059033;69;20080;-71
2022/05/05 03:26:13;;;;;;;;;;;;;;;11.50;69.99;92899.94;2072078;69;20110;-69
2022/05/05 03:28:38;;;;;;;;;;;;;;;11.48;70.44;92913.19;2059016;69;20416;-69
2022/05/05 03:31:06;;;;;;;;;;;;;;;11.45;70.13;92901.78;2059037;69;20057;-69
2022/05/05 03:33:32;;;;;;;;;;;;;;;11.39;70.77;92901.41;2058962;69;20057;-69
2022/05/05 03:35:57;;;;;;;;;;;;;;;11.29;71.64;92897.97;2059128;69;20061;-70
2022/05/05 03:38:23;;;;;;;;;;;;;;;11.34;69.86;92896.13;2059117;69;20123;-74
2022/05/05 03:40:50;;;;;;;;;;;;;;;11.50;69.88;92894.31;2059010;69;20058;-70
2022/05/05 03:43:16;;;;;;;;;;;;;;;11.41;70.55;92900.81;2058987;69;20053;-73
2022/05/05 03:45:41;;;;;;;;;;;;;;;11.40;71.27;92904.97;2059101;69;20052;-69
2022/05/05 03:48:07;;;;;;;;;;;;;;;11.39;70.78;92907.03;2058955;69;20111;-69
2022/05/05 03:50:33;;;;;;;;;;;;;;;11.36;70.85;92908.28;2058839;69;20541;-69
2022/05/05 03:52:58;;;;;;;;;;;;;;;11.40;69.44;92910.59;2068993;69;20062;-71
2022/05/05 03:55:28;;;;;;;;;;;;;;;11.47;69.29;92917.34;2058921;69;20046;-70
2022/05/05 03:57:53;;;;;;;;;;;;;;;11.34;70.00;92922.25;2058937;69;20050;-69
2022/05/05 04:00:20;;;;;;;;;;;;;;;11.44;68.11;92917.22;2058953;69;20046;-69
2022/05/05 04:03:30;;;;;;;;;;;;;;;11.45;70.16;92913.06;2071874;69;20050;-70
2022/05/05 04:05:31;;;;;;;;;;;;;;;11.47;69.82;92911.72;2059081;69;20498;-70
2022/05/05 04:11:25;;;;;;;;;;;;;;;11.49;69.43;92909.00;2058964;69;20073;-69
2022/05/05 04:13:50;;;;;;;;;;;;;;;11.48;70.03;92911.09;2059019;69;20498;-70
2022/05/05 04:16:16;;;;;;;;;;;;;;;11.46;70.20;92908.16;2059007;69;20114;-68
2022/05/05 04:18:41;;;;;;;;;;;;;;;11.53;70.04;92904.34;2058826;69;20110;-69
2022/05/05 04:21:07;;;;;;;;;;;;;;;11.19;70.56;92903.72;2071947;69;20059;-69
2022/05/05 04:23:33;;;;;;;;;;;;;;;11.46;69.60;92908.16;2058889;69;20054;-70
2022/05/05 04:25:59;;;;;;;;;;;;;;;11.54;69.99;92897.34;2058987;69;20054;-70
2022/05/05 04:28:24;;;;;;;;;;;;;;;11.57;69.86;92907.41;2058885;69;20056;-73
2022/05/05 04:30:50;;;;;;;;;;;;;;;11.49;70.90;92906.91;2058993;69;20046;-72
2022/05/05 04:33:15;;;;;;;;;;;;;;;11.56;69.75;92899.56;2058799;69;20085;-69
2022/05/05 04:35:41;;;;;;;;;;;;;;;11.68;69.46;92911.56;2058873;69;20050;-71
2022/05/05 04:38:07;;;;;;;;;;;;;;;11.51;69.61;92900.69;2058898;69;20057;-69
2022/05/05 04:40:33;;;;;;;;;;;;;;;11.69;68.87;92896.88;2058980;69;20049;-70
2022/05/05 04:42:58;;;;;;;;;;;;;;;11.77;68.79;92890.22;2071870;69;20514;-73
2022/05/05 04:45:24;;;;;;;;;;;;;;;11.50;69.96;92896.38;2058948;69;20101;-70
2022/05/05 04:47:50;;;;;;;;;;;;;;;11.44;70.11;92889.03;2058856;69;20429;-70
2022/05/05 04:50:16;;;;;;;;;;;;;;;11.66;69.75;92895.28;2058931;69;20042;-69
2022/05/05 04:52:42;;;;;;;;;;;;;;;11.66;67.38;92888.91;2058799;69;20060;-69
2022/05/05 04:55:07;;;;;;;;;;;;;;;11.66;69.52;92886.09;2058793;69;20433;-69
2022/05/05 04:57:35;;;;;;;;;;;;;;;11.73;69.33;92890.75;2058433;69;20463;-71
2022/05/05 05:00:00;;;;;;;;;;;;;;;11.63;69.57;92887.31;2058990;69;20058;-73
2022/05/05 05:02:26;;;;;;;;;;;;;;;11.66;70.17;92883.25;2058814;69;20078;-70
2022/05/05 05:04:52;;;;;;;;;;;;;;;11.79;69.46;92893.91;2058807;69;20042;-69
2022/05/05 05:07:17;;;;;;;;;;;;;;;11.90;68.35;92895.28;2071849;69;20049;-70
2022/05/05 05:13:11;;;;;;;;;;;;;;;11.57;69.64;92887.69;2058786;69;20170;-71
2022/05/05 05:15:36;;;;;;;;;;;;;;;11.83;69.36;92899.09;2058901;69;20452;-70
2022/05/05 05:18:02;;;;;;;;;;;;;;;11.87;69.80;92902.16;2058754;69;20049;-69
2022/05/05 05:20:27;;;;;;;;;;;;;;;11.92;68.93;92910.25;2072313;69;20162;-69
2022/05/05 05:22:53;;;;;;;;;;;;;;;11.97;69.12;92907.66;2069343;69;20064;-70
2022/05/05 05:25:18;;;;;;;;;;;;;;;12.01;67.54;92902.25;2059388;69;20050;-69
2022/05/05 05:27:44;;;;;;;;;;;;;;;11.87;69.32;92902.16;2071984;69;20421;-69
2022/05/05 05:30:09;;;;;;;;;;;;;;;11.73;70.16;92893.56;2059231;69;20474;-70
2022/05/05 05:32:35;;;;;;;;;;;;;;;11.73;70.19;92893.56;2059156;69;20057;-72
2022/05/05 05:35:00;;;;;;;;;;;;;;;11.68;70.19;92903.88;2071970;69;20145;-70
2022/05/05 05:37:26;;;;;;;;;;;;;;;11.87;68.72;92911.34;2059151;69;20046;-71
2022/05/05 05:39:51;;;;;;;;;;;;;;;11.84;70.47;92906.22;2059243;69;20416;-71
2022/05/05 05:42:17;;;;;;;;;;;;;;;11.86;70.97;92915.50;2072259;69;20062;-71
2022/05/05 05:44:42;;;;;;;;;;;;;;;11.92;69.69;92918.72;2059371;69;20112;-71
2022/05/05 05:47:10;;;;;;;;;;;;;;;11.89;68.48;92913.56;2059207;69;20290;-71
2022/05/05 05:49:35;;;;;;;;;;;;;;;11.76;69.73;92920.53;2059136;69;20120;-70
2022/05/05 05:52:01;;;;;;;;;;;;;;;11.94;69.32;92918.81;2059181;69;20046;-70
2022/05/05 05:54:26;;;;;;;;;;;;;;;12.00;69.41;92920.53;2059303;69;20053;-70
2022/05/05 05:56:52;;;;;;;;;;;;;;;12.05;69.95;92923.00;2059304;69;20054;-70
2022/05/05 05:59:17;;;;;;;;;;;;;;;12.05;70.14;92925.81;2059147;69;20066;-70
2022/05/05 06:04:27;;;;;;;;;;;;;;;12.18;69.08;92927.97;2059103;69;20054;-70
2022/05/05 06:06:52;;;;;;;;;;;;;;;12.18;69.14;92936.44;2059294;69;20042;-71
2022/05/05 06:09:18;;;;;;;;;;;;;;;12.12;69.77;92926.88;2059415;69;20414;-72
2022/05/05 06:11:43;;;;;;;;;;;;;;;12.16;69.39;92932.78;2072253;69;20406;-70
2022/05/05 06:14:09;;;;;;;;;;;;;;;12.23;68.11;92934.59;2059274;69;20516;-73
2022/05/05 06:16:34;;;;;;;;;;;;;;;12.06;68.85;92926.53;2059173;69;20119;-70
2022/05/05 06:19:00;;;;;;;;;;;;;;;12.14;67.75;92927.00;2059075;69;20414;-71
2022/05/05 06:21:25;;;;;;;;;;;;;;;12.16;68.42;92927.13;2059140;69;20521;-72
2022/05/05 06:23:51;;;;;;;;;;;;;;;12.22;67.98;92921.84;2059155;69;20497;-70
2022/05/05 06:26:16;;;;;;;;;;;;;;;12.23;67.99;92917.66;2059244;69;20073;-73
2022/05/05 06:28:43;;;;;;;;;;;;;;;12.41;65.98;92917.97;2059266;69;20070;-73
2022/05/05 06:31:09;;;;;;;;;;;;;;;12.55;62.77;92918.78;2058958;69;20068;-70
2022/05/05 06:33:34;;;;;;;;;;;;;;;12.58;65.89;92920.38;2059018;69;20054;-71
2022/05/05 06:35:59;;;;;;;;;;;;;;;12.66;65.36;92909.53;2059096;69;20490;-71
2022/05/05 06:38:25;;;;;;;;;;;;;;;12.70;64.10;92912.59;2059182;69;20479;-71
2022/05/05 06:40:51;;;;;;;;;;;;;;;12.83;63.57;92908.38;2059035;69;20054;-72
2022/05/05 06:43:16;;;;;;;;;;;;;;;12.95;62.83;92906.19;2059208;69;20050;-74
2022/05/05 06:45:42;;;;;;;;;;;;;;;13.00;65.62;92898.69;2059019;69;20117;-70
2022/05/05 06:48:07;;;;;;;;;;;;;;;13.08;64.00;92899.13;2058928;69;20050;-69
2022/05/05 06:50:33;;;;;;;;;;;;;;;13.20;63.29;92894.16;2059093;69;20058;-71
2022/05/05 06:53:00;;;;;;;;;;;;;;;13.21;62.23;92892.78;2059081;69;20060;-71
2022/05/05 06:55:25;;;;;;;;;;;;;;;13.35;62.97;92897.75;2059091;69;20475;-72
2022/05/05 06:57:51;;;;;;;;;;;;;;;13.59;62.85;92895.50;2059065;69;20056;-71
2022/05/05 07:00:17;;;;;;;;;;;;;;;13.69;62.00;92896.75;2059069;69;20050;-71
2022/05/05 07:06:11;;;;;;;;;;;;;;;13.88;63.71;92904.13;2059132;69;20535;-71
2022/05/05 07:11:21;;;;;;;;;;;;;;;14.05;61.89;92905.66;2059291;69;20059;-71
2022/05/05 07:13:47;;;;;;;;;;;;;;;14.18;60.46;92902.09;2059130;69;20061;-71
2022/05/05 07:16:12;;;;;;;;;;;;;;;14.25;59.95;92905.97;2072174;69;20054;-71
2022/05/05 07:18:38;;;;;;;;;;;;;;;14.48;59.43;92907.84;2059018;69;20157;-69
2022/05/05 07:21:03;;;;;;;;;;;;;;;14.70;59.65;92905.38;2059056;69;20181;-72
2022/05/05 07:23:29;;;;;;;;;;;;;;;15.02;60.22;92916.81;2072017;69;20566;-69
2022/05/05 07:25:54;;;;;;;;;;;;;;;15.47;62.00;92906.19;2059087;69;20493;-70
2022/05/05 07:28:20;;;;;;;;;;;;;;;16.01;60.58;92909.31;2059056;69;20563;-70
2022/05/05 07:30:45;;;;;;;;;;;;;;;16.13;57.16;92906.28;2059007;69;20139;-70
2022/05/05 07:33:11;;;;;;;;;;;;;;;16.32;58.51;92908.53;2058924;69;20160;-70
2022/05/05 07:35:39;;;;;;;;;;;;;;;16.75;56.28;92894.03;2059107;69;20049;-71
2022/05/05 07:38:05;;;;;;;;;;;;;;;16.77;53.95;92888.44;2059089;69;20061;-69
2022/05/05 07:40:30;;;;;;;;;;;;;;;17.19;52.28;92897.22;2058943;69;20046;-69
2022/05/05 07:42:56;;;;;;;;;;;;;;;17.74;50.29;92892.91;2059003;69;20042;-70
2022/05/05 07:45:21;;;;;;;;;;;;;;;17.78;51.38;92895.91;2058965;69;20470;-69
2022/05/05 07:51:16;;;;;;;;;;;;;;;17.88;48.86;92895.56;2059033;69;20563;-70
2022/05/05 07:53:41;;;;;;;;;;;;;;;18.20;50.38;92887.47;2059035;69;20101;-70
2022/05/05 07:56:07;;;;;;;;;;;;;;;18.41;45.51;92894.59;2058636;69;20145;-72
2022/05/05 07:58:34;;;;;;;;;;;;;;;18.52;45.70;92894.28;2058913;69;20058;-70
2022/05/05 08:00:59;;;;;;;;;;;;;;;18.08;44.86;92901.25;2058903;69;20073;-71
2022/05/05 08:03:25;;;;;;;;;;;;;;;18.77;44.63;92898.72;2058934;69;20055;-72
2022/05/05 08:05:50;;;;;;;;;;;;;;;19.17;45.22;92890.03;2058897;69;20054;-70
2022/05/05 08:08:17;;;;;;;;;;;;;;;18.65;44.55;92891.88;2058930;69;20058;-69
2022/05/05 08:10:42;;;;;;;;;;;;;;;19.02;43.27;92896.69;2058947;69;20048;-69
2022/05/05 08:13:09;;;;;;;;;;;;;;;18.84;43.52;92887.53;2058888;69;20078;-72
2022/05/05 08:19:03;;;;;;;;;;;;;;;19.76;43.03;92899.72;2058855;69;20114;-69
2022/05/05 08:21:29;;;;;;;;;;;;;;;19.50;43.27;92896.75;2058915;69;20057;-71
2022/05/05 08:29:22;;;;;;;;;;;;;;;21.30;41.96;92903.19;2059107;69;20053;-72
2022/05/05 08:31:47;;;;;;;;;;;;;;;21.53;39.97;92907.34;2058976;69;20050;-73
2022/05/05 08:34:13;;;;;;;;;;;;;;;21.67;41.65;92897.59;2058774;69;20053;-73
2022/05/05 08:36:38;;;;;;;;;;;;;;;21.82;41.39;92899.38;2058973;69;20077;-73
2022/05/05 08:39:04;;;;;;;;;;;;;;;21.83;39.52;92892.97;2058887;69;20096;-72
2022/05/05 08:41:30;;;;;;;;;;;;;;;22.55;40.25;92883.72;2058871;69;20049;-73
2022/05/05 08:43:55;;;;;;;;;;;;;;;22.62;40.12;92889.56;2071960;69;20074;-72
2022/05/05 08:46:23;;;;;;;;;;;;;;;22.07;37.19;92898.47;2058943;69;20046;-73
2022/05/05 08:52:18;;;;;;;;;;;;;;;23.37;38.14;92895.91;2058854;69;20112;-72
2022/05/05 08:54:43;;;;;;;;;;;;;;;23.29;36.81;92897.25;2059211;69;20054;-72
2022/05/05 08:57:09;;;;;;;;;;;;;;;23.10;38.39;92895.50;2059442;69;20069;-72
2022/05/05 08:59:35;;;;;;;;;;;;;;;22.72;35.06;92896.19;2059308;69;20222;-72
2022/05/05 09:02:00;;;;;;;;;;;;;;;23.59;36.59;92885.53;2072354;69;20058;-72
2022/05/05 09:04:26;;;;;;;;;;;;;;;21.87;37.86;92880.84;2059238;69;20053;-72
2022/05/05 09:06:52;;;;;;;;;;;;;;;22.94;37.46;92880.84;2059279;69;20186;-72
2022/05/05 09:09:25;;;;;;;;;;;;;;;23.67;36.93;92879.19;2059185;69;20489;-72
2022/05/05 09:12:04;;;;;;;;;;;;;;;23.32;35.64;92870.00;2059221;69;20065;-73
2022/05/05 09:14:40;;;;;;;;;;;;;;;23.54;36.82;92875.34;2059280;69;20156;-72
2022/05/05 09:17:06;;;;;;;;;;;;;;;23.47;37.87;92867.38;2059313;69;20162;-72
2022/05/05 09:19:36;;;;;;;;;;;;;;;23.01;37.60;92871.66;2072253;69;20050;-72
2022/05/05 09:22:02;;;;;;;;;;;;;;;23.19;37.31;92870.50;2059178;69;20046;-72
2022/05/05 09:24:37;;;;;;;;;;;;;;;22.74;36.60;92873.28;2059266;69;20521;-72
2022/05/05 09:27:22;;;;;;;;;;;;;;;23.37;35.91;92873.69;2072318;69;20062;-73
2022/05/05 09:30:01;;;;;;;;;;;;;;;23.73;37.14;92875.66;2059260;69;20046;-72
2022/05/05 09:32:30;;;;;;;;;;;;;;;22.81;37.97;92869.09;2059122;69;20093;-72
2022/05/05 09:35:00;;;;;;;;;;;;;;;23.24;37.34;92867.00;2059213;69;20058;-71
2022/05/05 09:37:26;;;;;;;;;;;;;;;22.32;36.69;92868.22;2072198;69;20046;-71
2022/05/05 09:39:57;;;;;;;;;;;;;;;22.96;37.99;92873.00;2059212;69;20050;-72
2022/05/05 09:42:45;;;;;;;;;;;;;;;22.95;37.11;92883.00;2059254;69;20196;-73
2022/05/05 09:45:18;;;;;;;;;;;;;;;22.80;36.94;92867.66;2067987;69;20058;-72
2022/05/05 09:47:49;;;;;;;;;;;;;;;22.77;36.36;92876.91;2059089;69;20489;-72
2022/05/05 09:50:15;;;;;;;;;;;;;;;22.92;37.22;92880.81;2059221;69;20049;-73
2022/05/05 09:58:13;;;;;;;;;;;;;;;23.61;36.56;92878.34;2059212;69;20122;-72
2022/05/05 10:00:45;;;;;;;;;;;;;;;23.14;35.21;92868.97;2059325;69;20062;-72
2022/05/05 10:05:57;;;;;;;;;;;;;;;22.55;36.38;92877.97;2059116;69;20541;-72
2022/05/05 10:08:49;;;;;;;;;;;;;;;23.17;36.32;92865.44;2059234;69;20141;-72
2022/05/05 10:11:15;;;;;;;;;;;;;;;23.57;35.25;92864.63;2058546;69;20046;-72
2022/05/05 10:13:41;;;;;;;;;;;;;;;23.89;35.32;92869.44;2072283;69;20056;-72
2022/05/05 10:16:07;;;;;;;;;;;;;;;24.34;36.23;92867.88;2058511;69;20101;-72
2022/05/05 10:18:33;;;;;;;;;;;;;;;24.51;35.11;92868.78;2058788;69;20054;-73
2022/05/05 10:21:00;;;;;;;;;;;;;;;24.13;34.20;92864.00;2058780;69;20074;-72
2022/05/05 10:23:44;;;;;;;;;;;;;;;24.05;34.44;92853.13;2058488;69;20092;-71
2022/05/05 10:28:59;;;;;;;;;;;;;;;25.07;33.68;92850.66;2072155;69;20145;-72
2022/05/05 10:31:31;;;;;;;;;;;;;;;23.13;34.55;92842.41;2058898;69;20147;-71
2022/05/05 10:33:58;;;;;;;;;;;;;;;23.71;33.87;92836.13;2058996;69;20057;-72
2022/05/05 10:36:24;;;;;;;;;;;;;;;24.42;33.66;92832.72;2059165;69;20085;-71
2022/05/05 10:38:51;;;;;;;;;;;;;;;24.06;31.96;92830.84;2059144;69;20145;-71
2022/05/05 10:41:36;;;;;;;;;;;;;;;23.14;33.98;92815.16;2071895;69;20474;-73
2022/05/05 10:44:23;;;;;;;;;;;;;;;24.23;33.56;92815.22;2072009;69;20054;-72
2022/05/05 10:46:52;;;;;;;;;;;;;;;24.49;33.40;92811.22;2059366;69;20176;-72
2022/05/05 10:49:34;;;;;;;;;;;;;;;24.73;33.52;92810.75;2058961;69;20049;-72
2022/05/05 10:52:11;;;;;;;;;;;;;;;22.69;35.27;92800.03;2058904;69;20153;-71
2022/05/05 10:54:38;;;;;;;;;;;;;;;22.42;36.44;92806.72;2072108;69;20518;-72
2022/05/05 10:57:22;;;;;;;;;;;;;;;22.72;35.31;92789.31;2059003;69;20050;-72
2022/05/05 11:00:07;;;;;;;;;;;;;;;23.18;34.85;92792.22;2072164;69;20046;-72
2022/05/05 11:02:32;;;;;;;;;;;;;;;22.84;34.58;92786.66;2058787;69;20110;-71
2022/05/05 11:05:17;;;;;;;;;;;;;;;23.13;33.61;92782.09;2058954;69;20078;-71
2022/05/05 11:07:43;;;;;;;;;;;;;;;23.56;34.32;92777.00;2059067;69;20093;-71
2022/05/05 11:10:29;;;;;;;;;;;;;;;23.25;34.97;92776.56;2059051;69;20074;-72
2022/05/05 11:12:54;;;;;;;;;;;;;;;24.82;33.45;92781.31;2058833;69;20049;-71
2022/05/05 11:23:46;;;;;;;;;;;;;;;23.88;32.93;92779.59;2058783;69;20123;-71
2022/05/05 11:26:16;;;;;;;;;;;;;;;23.68;32.90;92773.56;2058995;69;20483;-71
2022/05/05 11:28:41;;;;;;;;;;;;;;;23.96;31.99;92767.44;2058935;69;20046;-72
2022/05/05 11:31:17;;;;;;;;;;;;;;;23.79;33.27;92760.78;2058969;69;20052;-72
2022/05/05 11:33:46;;;;;;;;;;;;;;;24.16;32.72;92769.84;2058854;69;20073;-72
2022/05/05 11:36:11;;;;;;;;;;;;;;;24.65;32.71;92761.72;2071904;69;20563;-72
2022/05/05 11:38:41;;;;;;;;;;;;;;;23.22;32.82;92775.06;2058944;69;20057;-71
2022/05/05 11:41:07;;;;;;;;;;;;;;;22.55;34.61;92766.09;2058933;69;20049;-71
2022/05/05 11:46:17;;;;;;;;;;;;;;;22.27;35.22;92745.53;2058969;69;20057;-71
2022/05/05 11:52:22;;;;;;;;;;;;;;;22.98;35.13;92743.84;2058895;69;20134;-72
2022/05/05 11:54:56;;;;;;;;;;;;;;;22.44;34.66;92732.91;2058850;69;20146;-72
2022/05/05 11:57:32;;;;;;;;;;;;;;;22.20;35.31;92736.06;2058889;69;20540;-71
2022/05/05 12:02:43;;;;;;;;;;;;;;;22.56;35.72;92741.00;2058401;69;20062;-71
2022/05/05 12:05:09;;;;;;;;;;;;;;;23.23;34.88;92732.72;2058874;69;20069;-71
2022/05/05 12:07:35;;;;;;;;;;;;;;;23.67;34.34;92726.88;2071858;69;20054;-71
2022/05/05 12:10:05;;;;;;;;;;;;;;;24.08;33.91;92733.09;2071862;69;20046;-70
2022/05/05 12:12:31;;;;;;;;;;;;;;;24.27;32.63;92734.00;2071993;69;20070;-72
2022/05/05 12:14:58;;;;;;;;;;;;;;;23.92;32.12;92725.03;2058591;69;20111;-74
2022/05/05 12:17:26;;;;;;;;;;;;;;;23.68;32.18;92733.34;2071712;69;20069;-71
2022/05/05 12:19:53;;;;;;;;;;;;;;;24.63;31.96;92721.44;2058884;69;20150;-71
2022/05/05 12:22:29;;;;;;;;;;;;;;;23.79;31.27;92721.28;2058515;69;20558;-71
2022/05/05 12:24:54;;;;;;;;;;;;;;;23.81;31.53;92726.31;2058816;69;20053;-72
2022/05/05 12:27:25;;;;;;;;;;;;;;;24.13;30.44;92728.13;2058301;69;20050;-72
2022/05/05 12:29:50;;;;;;;;;;;;;;;24.82;31.21;92717.28;2058300;69;20497;-72
2022/05/05 12:32:16;;;;;;;;;;;;;;;24.32;31.45;92724.00;2058732;69;20046;-72
2022/05/05 12:34:42;;;;;;;;;;;;;;;23.17;32.28;92713.25;2058763;69;20054;-72
2022/05/05 12:37:11;;;;;;;;;;;;;;;23.39;31.73;92715.00;2058813;69;20055;-72
2022/05/05 12:39:52;;;;;;;;;;;;;;;24.00;32.15;92707.84;2058603;69;20050;-73
2022/05/05 12:42:18;;;;;;;;;;;;;;;24.08;31.54;92712.97;2058507;69;20153;-72
2022/05/05 12:44:44;;;;;;;;;;;;;;;24.33;31.82;92716.81;2058595;69;20133;-72
2022/05/05 12:47:09;;;;;;;;;;;;;;;23.66;31.97;92704.59;2058777;69;20081;-72
2022/05/05 12:49:39;;;;;;;;;;;;;;;23.94;31.98;92704.91;2058737;69;20550;-71
2022/05/05 12:52:06;;;;;;;;;;;;;;;24.27;29.80;92703.09;2058788;69;20050;-72
2022/05/05 13:00:01;;;;;;;;;;;;;;;23.99;31.55;92689.16;2058893;69;20145;-72
2022/05/05 13:02:26;;;;;;;;;;;;;;;24.38;31.74;92688.84;2058514;69;20498;-72
2022/05/05 13:04:52;;;;;;;;;;;;;;;23.19;31.67;92689.59;2058733;69;20061;-73
2022/05/05 13:07:19;;;;;;;;;;;;;;;23.91;32.52;92686.19;2058717;69;20061;-73
2022/05/05 13:09:44;;;;;;;;;;;;;;;24.10;31.88;92675.63;2058803;69;20636;-73
2022/05/05 13:12:10;;;;;;;;;;;;;;;24.38;31.83;92680.22;2058550;69;20066;-72
2022/05/05 13:14:35;;;;;;;;;;;;;;;23.43;32.82;92672.69;2071850;69;20207;-73
2022/05/05 13:17:01;;;;;;;;;;;;;;;23.96;30.71;92681.19;2058766;69;20053;-73
2022/05/05 13:19:29;;;;;;;;;;;;;;;23.71;30.87;92677.34;2058671;69;20093;-72
2022/05/05 13:21:54;;;;;;;;;;;;;;;23.98;31.90;92678.38;2058586;69;20054;-72
2022/05/05 13:24:20;;;;;;;;;;;;;;;24.26;32.15;92669.28;2071723;69;20061;-71
2022/05/05 13:26:46;;;;;;;;;;;;;;;23.28;32.31;92671.06;2058583;69;20050;-71
2022/05/05 13:29:12;;;;;;;;;;;;;;;23.40;31.76;92671.19;2058449;69;20055;-72
2022/05/05 13:31:39;;;;;;;;;;;;;;;23.78;31.58;92673.84;2071582;69;20054;-71
2022/05/05 13:34:04;;;;;;;;;;;;;;;23.39;32.06;92666.16;2058451;69;20119;-71
2022/05/05 13:36:30;;;;;;;;;;;;;;;23.73;32.16;92663.72;2058581;69;20062;-71
2022/05/05 13:38:56;;;;;;;;;;;;;;;23.33;31.25;92666.81;2071783;69;20084;-70
2022/05/05 13:41:21;;;;;;;;;;;;;;;23.61;31.90;92659.97;2059021;69;20478;-70
2022/05/05 13:43:46;;;;;;;;;;;;;;;23.72;32.14;92662.28;2058989;69;20086;-71
2022/05/05 13:46:12;;;;;;;;;;;;;;;23.56;32.19;92657.03;2059122;69;20083;-71
2022/05/05 13:48:37;;;;;;;;;;;;;;;23.26;32.56;92653.78;2059062;69;20141;-71
2022/05/05 13:51:04;;;;;;;;;;;;;;;23.38;32.44;92653.22;2058948;69;20085;-72
2022/05/05 13:53:32;;;;;;;;;;;;;;;22.85;31.66;92650.34;2058814;69;20536;-72
2022/05/05 13:55:58;;;;;;;;;;;;;;;23.43;32.64;92652.56;2058934;69;20051;-71
2022/05/05 14:01:52;;;;;;;;;;;;;;;22.79;32.69;92644.53;2059032;69;20084;-71
2022/05/05 14:04:17;;;;;;;;;;;;;;;22.72;31.40;92628.63;2058831;69;20470;-72
2022/05/05 14:16:31;;;;;;;;;;;;;;;22.54;32.55;92634.81;2059082;69;20072;-71
2022/05/05 14:18:56;;;;;;;;;;;;;;;22.13;31.44;92642.78;2058871;69;20524;-73
2022/05/05 14:21:21;;;;;;;;;;;;;;;22.37;32.19;92645.31;2058812;69;20049;-72
2022/05/05 14:23:47;;;;;;;;;;;;;;;22.93;32.61;92641.88;2058748;69;20102;-72
2022/05/05 14:26:13;;;;;;;;;;;;;;;23.12;31.76;92645.72;2058519;69;20099;-71